Ocean Titan — WDJ3639 — position and weather

sailwx.info

Track history (hours):
 
Tides and Currents Weather Stations Pressure Air Temp Water Temp Dewpoint Dewpoint Depression Visibility Wind Speed Wind Dir Waves Ship Positions

Oceanographic research ship Ocean Titan (USA)

Owner: Ocean Titan Holding, LLC, Seattle, WA. More information available from US FCC via Universal Licensing System and Coast Guard Vessel Documentation Center.

Last reported at 2018-Dec-12 23:32 UTC. Time now 2018-Dec-13 00:17 UTC.
Position N 36°47' W 123°19'.

Length 60 m; draft 4.7 m.

Type: Wing in ground effect craft. MMSI: 369228000.

Date/timePositionNaut miles runAvg speedWind from/ knotsBaromVisibWave heightAir tempDewpointWater temp
2018-Dec-12 23:32N 36°47' W 123°19'0 0.0
2018-Dec-12 23:30N 36°47' W 123°19'  
2018-Dec-09 10:21N 36°47' W 123°19'0 0.0
2018-Dec-09 09:39N 36°47' W 123°19'10 0.6
2018-Dec-08 16:47N 36°57' W 123°15'310.7
2018-Dec-08 16:30N 36°60' W 123°15'611.0
2018-Dec-08 15:58N 37°06' W 123°13'811.3
2018-Dec-08 15:18N 37°13' W 123°11'311.2
2018-Dec-08 15:00N 37°16' W 123°10'611.0
2018-Dec-08 14:30N 37°21' W 123°07'810.8
2018-Dec-08 13:44N 37°29' W 123°05'210.9
2018-Dec-08 13:30N 37°32' W 123°05'510.1
2018-Dec-08 13:00N 37°36' W 123°01'510.5
2018-Dec-08 12:30N 37°39' W 122°55'510.8
2018-Dec-08 12:00N 37°42' W 122°50'510.7
2018-Dec-08 11:30N 37°45' W 122°44'510.7
2018-Dec-08 11:01N 37°46' W 122°38'611.4
2018-Dec-08 10:30N 37°48' W 122°31'510.9
2018-Dec-08 10:01N 37°51' W 122°25'5 9.0
2018-Dec-08 09:31N 37°55' W 122°27'5 9.2
2018-Dec-08 09:00N 37°60' W 122°25'4 8.7
2018-Dec-08 08:30N 38°03' W 122°21'4 9.0
2018-Dec-08 08:00N 38°04' W 122°15'2 2.1
2018-Dec-08 07:15N 38°05' W 122°16'0 0.0
2018-Dec-08 04:07N 38°05' W 122°16'0 0.0
2018-Dec-08 04:00N 38°05' W 122°16'0 0.0
2018-Dec-08 03:30N 38°05' W 122°16'0 0.0
2018-Dec-08 03:00N 38°05' W 122°16'0 0.0
2018-Dec-08 02:30N 38°05' W 122°16'0 0.0
2018-Dec-08 02:00N 38°05' W 122°16'0 0.0
2018-Dec-08 01:30N 38°05' W 122°16'0 0.0
2018-Dec-08 00:15N 38°05' W 122°16'0 0.0
2018-Dec-07 23:56N 38°05' W 122°16'0 0.0
2018-Dec-07 23:21N 38°05' W 122°16'0 0.0
2018-Dec-07 19:51N 38°05' W 122°16'0 0.0
2018-Dec-07 19:02N 38°05' W 122°16'0 0.0
2018-Dec-07 18:43N 38°05' W 122°16'0 0.0
2018-Dec-07 18:20N 38°05' W 122°16'0 0.1
2018-Dec-07 17:59N 38°05' W 122°16'0 0.3
2018-Dec-07 17:30N 38°06' W 122°16'0 0.1
2018-Dec-07 16:49N 38°06' W 122°15'1 3.0
2018-Dec-07 16:30N 38°05' W 122°15'4 7.9
2018-Dec-07 16:00N 38°03' W 122°19'510.5
2018-Dec-07 15:30N 38°00' W 122°25'5 9.7
2018-Dec-07 15:00N 37°56' W 122°27'5 9.6
2018-Dec-07 14:30N 37°51' W 122°24'510.3
2018-Dec-07 14:00N 37°48' W 122°30'5 9.7
2018-Dec-07 13:31N 37°47' W 122°36'4 8.9
2018-Dec-07 13:00N 37°45' W 122°41'4 7.1
2018-Dec-07 12:30N 37°46' W 122°45'4 8.4
2018-Dec-07 12:01N 37°48' W 122°50'4 8.7
2018-Dec-07 11:30N 37°50' W 122°54'4 8.7
2018-Dec-07 11:00N 37°52' W 122°59'4 8.5
2018-Dec-07 10:30N 37°54' W 123°04'4 8.5
2018-Dec-07 10:00N 37°56' W 123°09'4 8.5
2018-Dec-07 09:30N 37°59' W 123°13'4 8.6
2018-Dec-07 09:00N 38°02' W 123°16'4 8.8
2018-Dec-07 08:30N 38°06' W 123°20'4 8.8
2018-Dec-07 08:00N 38°09' W 123°24'4 8.9
2018-Dec-07 07:30N 38°12' W 123°28'4 8.8
2018-Dec-07 07:00N 38°15' W 123°32'4 9.0
2018-Dec-07 06:30N 38°18' W 123°36'4 8.9
2018-Dec-07 06:00N 38°20' W 123°41'4 8.7
2018-Dec-07 05:30N 38°23' W 123°45'4 8.4
2018-Dec-07 05:00N 38°26' W 123°49'4 8.5
2018-Dec-07 04:30N 38°29' W 123°53'4 8.6
2018-Dec-07 04:00N 38°32' W 123°57'5 8.8
2018-Dec-07 03:28N 38°34' W 124°02'39910.4
2018-Dec-05 12:59N 45°09' W 125°24'1510.8
2018-Dec-05 11:37N 45°24' W 125°22'411.0
2018-Dec-05 11:16N 45°28' W 125°21'411.1
2018-Dec-05 10:53N 45°32' W 125°20'611.2
2018-Dec-05 10:23N 45°38' W 125°19'411.1
2018-Dec-05 10:00N 45°42' W 125°19'611.0
2018-Dec-05 09:30N 45°47' W 125°18'611.0
2018-Dec-05 08:57N 45°53' W 125°17'510.6
2018-Dec-05 08:30N 45°58' W 125°17'510.7
2018-Dec-05 08:00N 46°03' W 125°16'2010.6
2018-Dec-05 06:07N 46°23' W 125°12'110.5
2018-Dec-05 06:00N 46°24' W 125°12'910.8
2018-Dec-05 05:12N 46°33' W 125°12'310.8
2018-Dec-05 04:56N 46°36' W 125°11'10010.8
2018-Dec-04 19:41N 48°15' W 124°53'210.0
2018-Dec-04 19:30N 48°17' W 124°53'5 9.8
2018-Dec-04 18:57N 48°22' W 124°52'510.0
2018-Dec-04 18:28N 48°26' W 124°47'511.0
2018-Dec-04 18:00N 48°25' W 124°40'611.5
2018-Dec-04 17:31N 48°23' W 124°32'611.9
2018-Dec-04 17:00N 48°20' W 124°24'612.4
2018-Dec-04 16:31N 48°17' W 124°16'612.4
2018-Dec-04 16:01N 48°15' W 124°07'612.2
2018-Dec-04 15:29N 48°12' W 123°58'1711.7
2018-Dec-04 14:04N 48°13' W 123°33'511.9
2018-Dec-04 13:39N 48°14' W 123°27'211.5
2018-Dec-04 13:30N 48°14' W 123°24'611.9
2018-Dec-04 12:58N 48°13' W 123°14'511.4
2018-Dec-04 12:30N 48°13' W 123°07'21 9.7
2018-Dec-04 10:21N 48°04' W 122°38'410.1
2018-Dec-04 09:55N 47°60' W 122°36'4 9.9
2018-Dec-04 09:29N 47°57' W 122°31'510.0
2018-Dec-04 09:00N 47°53' W 122°28'510.4
2018-Dec-04 08:31N 47°48' W 122°26'5 9.9
2018-Dec-04 08:00N 47°43' W 122°26'3 6.2
2018-Dec-04 07:30N 47°40' W 122°24'0 0.4
2018-Dec-04 07:00N 47°40' W 122°23'0 0.3
2018-Dec-04 06:30N 47°40' W 122°23'0 0.0
2018-Dec-04 06:01N 47°40' W 122°23'0 0.0
2018-Dec-04 05:30N 47°40' W 122°23'0 0.0
2018-Dec-04 05:00N 47°40' W 122°23'0 0.0
2018-Dec-04 04:31N 47°40' W 122°23'0 0.0
2018-Dec-04 04:01N 47°40' W 122°23'0 0.0
2018-Dec-04 03:30N 47°40' W 122°23'0 0.0
2018-Dec-04 03:00N 47°40' W 122°23'0 0.0
2018-Dec-04 02:30N 47°40' W 122°23'0 0.0
2018-Dec-04 02:00N 47°40' W 122°23'0 0.0
2018-Dec-04 01:30N 47°40' W 122°23'0 0.0
2018-Dec-04 01:00N 47°40' W 122°23'0 0.0
2018-Dec-04 00:30N 47°40' W 122°23'0 0.0
2018-Dec-04 00:00N 47°40' W 122°23'0 0.0
2018-Dec-03 23:31N 47°40' W 122°23'0 0.0
2018-Dec-03 22:59N 47°40' W 122°23'0 0.2
2018-Dec-03 22:29N 47°40' W 122°24'0 0.0
2018-Dec-03 21:59N 47°40' W 122°24'0 0.0
2018-Dec-03 21:29N 47°40' W 122°24'0 0.0
2018-Dec-03 20:59N 47°40' W 122°24'0 0.0
2018-Dec-03 20:29N 47°40' W 122°24'0 0.0
2018-Dec-03 19:59N 47°40' W 122°24'0 0.0
2018-Dec-03 19:29N 47°40' W 122°24'0 0.0
2018-Dec-03 18:59N 47°40' W 122°24'0 0.0
2018-Dec-03 18:29N 47°40' W 122°24'0 0.0
2018-Dec-03 17:59N 47°40' W 122°24'0 0.0
2018-Dec-03 17:29N 47°40' W 122°24'0 0.0
2018-Dec-03 16:59N 47°40' W 122°24'0 0.0
2018-Dec-03 16:29N 47°40' W 122°24'0 0.0
2018-Dec-03 15:59N 47°40' W 122°24'0 0.0
2018-Dec-03 15:29N 47°40' W 122°24'0 0.0
2018-Dec-03 14:59N 47°40' W 122°24'0 0.0
2018-Dec-03 14:29N 47°40' W 122°24'0 0.0
2018-Dec-03 13:59N 47°40' W 122°24'0 0.0
2018-Dec-03 13:29N 47°40' W 122°24'0 0.0
2018-Dec-03 12:59N 47°40' W 122°24'0 0.0
2018-Dec-03 12:29N 47°40' W 122°24'0 0.0
2018-Dec-03 11:59N 47°40' W 122°24'0 0.0
2018-Dec-03 11:29N 47°40' W 122°24'0 0.0
2018-Dec-03 10:59N 47°40' W 122°24'0 0.0
2018-Dec-03 10:29N 47°40' W 122°24'0 0.0
2018-Dec-03 09:59N 47°40' W 122°24'0 0.0
2018-Dec-03 09:29N 47°40' W 122°24'0 0.0
2018-Dec-03 08:59N 47°40' W 122°24'0 0.0
2018-Dec-03 08:29N 47°40' W 122°24'0 0.0
2018-Dec-03 07:59N 47°40' W 122°24'0 0.0
2018-Dec-03 07:29N 47°40' W 122°24'0 0.0
2018-Dec-03 06:59N 47°40' W 122°24'0 0.0
2018-Dec-03 06:29N 47°40' W 122°24'0 0.0
2018-Dec-03 05:59N 47°40' W 122°24'0 0.0
2018-Dec-03 05:29N 47°40' W 122°24'0 0.0
2018-Dec-03 04:59N 47°40' W 122°24'0 0.0
2018-Dec-03 04:29N 47°40' W 122°24'0 0.0
2018-Dec-03 03:59N 47°40' W 122°24'0 0.0
2018-Dec-03 03:29N 47°40' W 122°24'0 0.0
2018-Dec-03 02:59N 47°40' W 122°24'0 0.0
2018-Dec-03 02:29N 47°40' W 122°24'0 0.0
2018-Dec-03 01:59N 47°40' W 122°24'1 1.3
2018-Dec-03 01:30N 47°40' W 122°23'1 1.1
2018-Dec-03 00:58N 47°39' W 122°22'0 0.0
2018-Dec-03 00:28N 47°39' W 122°22'0 0.0
2018-Dec-02 23:58N 47°39' W 122°22'  
Track history (hours):
 
Tides and Currents Weather Stations Pressure Air Temp Water Temp Dewpoint Dewpoint Depression Visibility Wind Speed Wind Dir Waves Ship Positions

Oceanographic research ship Ocean Titan (USA)

Owner: Ocean Titan Holding, LLC, Seattle, WA. More information available from US FCC via Universal Licensing System and Coast Guard Vessel Documentation Center.

Last reported at 2018-Dec-12 23:32 UTC. Time now 2018-Dec-13 00:17 UTC.
Position N 36°47' W 123°19'.

Length 60 m; draft 4.7 m.

Type: Wing in ground effect craft. MMSI: 369228000.

Date/timePositionNaut miles runAvg speedWind from/ knotsBaromVisibWave heightAir tempDewpointWater temp
2018-Dec-12 23:32N 36°47' W 123°19'0 0.0
2018-Dec-12 23:30N 36°47' W 123°19'  
2018-Dec-09 10:21N 36°47' W 123°19'0 0.0
2018-Dec-09 09:39N 36°47' W 123°19'10 0.6
2018-Dec-08 16:47N 36°57' W 123°15'310.7
2018-Dec-08 16:30N 36°60' W 123°15'611.0
2018-Dec-08 15:58N 37°06' W 123°13'811.3
2018-Dec-08 15:18N 37°13' W 123°11'311.2
2018-Dec-08 15:00N 37°16' W 123°10'611.0
2018-Dec-08 14:30N 37°21' W 123°07'810.8
2018-Dec-08 13:44N 37°29' W 123°05'210.9
2018-Dec-08 13:30N 37°32' W 123°05'510.1
2018-Dec-08 13:00N 37°36' W 123°01'510.5
2018-Dec-08 12:30N 37°39' W 122°55'510.8
2018-Dec-08 12:00N 37°42' W 122°50'510.7
2018-Dec-08 11:30N 37°45' W 122°44'510.7
2018-Dec-08 11:01N 37°46' W 122°38'611.4
2018-Dec-08 10:30N 37°48' W 122°31'510.9
2018-Dec-08 10:01N 37°51' W 122°25'5 9.0
2018-Dec-08 09:31N 37°55' W 122°27'5 9.2
2018-Dec-08 09:00N 37°60' W 122°25'4 8.7
2018-Dec-08 08:30N 38°03' W 122°21'4 9.0
2018-Dec-08 08:00N 38°04' W 122°15'2 2.1
2018-Dec-08 07:15N 38°05' W 122°16'0 0.0
2018-Dec-08 04:07N 38°05' W 122°16'0 0.0
2018-Dec-08 04:00N 38°05' W 122°16'0 0.0
2018-Dec-08 03:30N 38°05' W 122°16'0 0.0
2018-Dec-08 03:00N 38°05' W 122°16'0 0.0
2018-Dec-08 02:30N 38°05' W 122°16'0 0.0
2018-Dec-08 02:00N 38°05' W 122°16'0 0.0
2018-Dec-08 01:30N 38°05' W 122°16'0 0.0
2018-Dec-08 00:15N 38°05' W 122°16'0 0.0
2018-Dec-07 23:56N 38°05' W 122°16'0 0.0
2018-Dec-07 23:21N 38°05' W 122°16'0 0.0
2018-Dec-07 19:51N 38°05' W 122°16'0 0.0
2018-Dec-07 19:02N 38°05' W 122°16'0 0.0
2018-Dec-07 18:43N 38°05' W 122°16'0 0.0
2018-Dec-07 18:20N 38°05' W 122°16'0 0.1
2018-Dec-07 17:59N 38°05' W 122°16'0 0.3
2018-Dec-07 17:30N 38°06' W 122°16'0 0.1
2018-Dec-07 16:49N 38°06' W 122°15'1 3.0
2018-Dec-07 16:30N 38°05' W 122°15'4 7.9
2018-Dec-07 16:00N 38°03' W 122°19'510.5
2018-Dec-07 15:30N 38°00' W 122°25'5 9.7
2018-Dec-07 15:00N 37°56' W 122°27'5 9.6
2018-Dec-07 14:30N 37°51' W 122°24'510.3
2018-Dec-07 14:00N 37°48' W 122°30'5 9.7
2018-Dec-07 13:31N 37°47' W 122°36'4 8.9
2018-Dec-07 13:00N 37°45' W 122°41'4 7.1
2018-Dec-07 12:30N 37°46' W 122°45'4 8.4
2018-Dec-07 12:01N 37°48' W 122°50'4 8.7
2018-Dec-07 11:30N 37°50' W 122°54'4 8.7
2018-Dec-07 11:00N 37°52' W 122°59'4 8.5
2018-Dec-07 10:30N 37°54' W 123°04'4 8.5
2018-Dec-07 10:00N 37°56' W 123°09'4 8.5
2018-Dec-07 09:30N 37°59' W 123°13'4 8.6
2018-Dec-07 09:00N 38°02' W 123°16'4 8.8
2018-Dec-07 08:30N 38°06' W 123°20'4 8.8
2018-Dec-07 08:00N 38°09' W 123°24'4 8.9
2018-Dec-07 07:30N 38°12' W 123°28'4 8.8
2018-Dec-07 07:00N 38°15' W 123°32'4 9.0
2018-Dec-07 06:30N 38°18' W 123°36'4 8.9
2018-Dec-07 06:00N 38°20' W 123°41'4 8.7
2018-Dec-07 05:30N 38°23' W 123°45'4 8.4
2018-Dec-07 05:00N 38°26' W 123°49'4 8.5
2018-Dec-07 04:30N 38°29' W 123°53'4 8.6
2018-Dec-07 04:00N 38°32' W 123°57'5 8.8
2018-Dec-07 03:28N 38°34' W 124°02'39910.4
2018-Dec-05 12:59N 45°09' W 125°24'1510.8
2018-Dec-05 11:37N 45°24' W 125°22'411.0
2018-Dec-05 11:16N 45°28' W 125°21'411.1
2018-Dec-05 10:53N 45°32' W 125°20'611.2
2018-Dec-05 10:23N 45°38' W 125°19'411.1
2018-Dec-05 10:00N 45°42' W 125°19'611.0
2018-Dec-05 09:30N 45°47' W 125°18'611.0
2018-Dec-05 08:57N 45°53' W 125°17'510.6
2018-Dec-05 08:30N 45°58' W 125°17'510.7
2018-Dec-05 08:00N 46°03' W 125°16'2010.6
2018-Dec-05 06:07N 46°23' W 125°12'110.5
2018-Dec-05 06:00N 46°24' W 125°12'910.8
2018-Dec-05 05:12N 46°33' W 125°12'310.8
2018-Dec-05 04:56N 46°36' W 125°11'10010.8
2018-Dec-04 19:41N 48°15' W 124°53'210.0
2018-Dec-04 19:30N 48°17' W 124°53'5 9.8
2018-Dec-04 18:57N 48°22' W 124°52'510.0
2018-Dec-04 18:28N 48°26' W 124°47'511.0
2018-Dec-04 18:00N 48°25' W 124°40'611.5
2018-Dec-04 17:31N 48°23' W 124°32'611.9
2018-Dec-04 17:00N 48°20' W 124°24'612.4
2018-Dec-04 16:31N 48°17' W 124°16'612.4
2018-Dec-04 16:01N 48°15' W 124°07'612.2
2018-Dec-04 15:29N 48°12' W 123°58'1711.7
2018-Dec-04 14:04N 48°13' W 123°33'511.9
2018-Dec-04 13:39N 48°14' W 123°27'211.5
2018-Dec-04 13:30N 48°14' W 123°24'611.9
2018-Dec-04 12:58N 48°13' W 123°14'511.4
2018-Dec-04 12:30N 48°13' W 123°07'21 9.7
2018-Dec-04 10:21N 48°04' W 122°38'410.1
2018-Dec-04 09:55N 47°60' W 122°36'4 9.9
2018-Dec-04 09:29N 47°57' W 122°31'510.0
2018-Dec-04 09:00N 47°53' W 122°28'510.4
2018-Dec-04 08:31N 47°48' W 122°26'5 9.9
2018-Dec-04 08:00N 47°43' W 122°26'3 6.2
2018-Dec-04 07:30N 47°40' W 122°24'0 0.4
2018-Dec-04 07:00N 47°40' W 122°23'0 0.3
2018-Dec-04 06:30N 47°40' W 122°23'0 0.0
2018-Dec-04 06:01N 47°40' W 122°23'0 0.0
2018-Dec-04 05:30N 47°40' W 122°23'0 0.0
2018-Dec-04 05:00N 47°40' W 122°23'0 0.0
2018-Dec-04 04:31N 47°40' W 122°23'0 0.0
2018-Dec-04 04:01N 47°40' W 122°23'0 0.0
2018-Dec-04 03:30N 47°40' W 122°23'0 0.0
2018-Dec-04 03:00N 47°40' W 122°23'0 0.0
2018-Dec-04 02:30N 47°40' W 122°23'0 0.0
2018-Dec-04 02:00N 47°40' W 122°23'0 0.0
2018-Dec-04 01:30N 47°40' W 122°23'0 0.0
2018-Dec-04 01:00N 47°40' W 122°23'0 0.0
2018-Dec-04 00:30N 47°40' W 122°23'0 0.0
2018-Dec-04 00:00N 47°40' W 122°23'0 0.0
2018-Dec-03 23:31N 47°40' W 122°23'0 0.0
2018-Dec-03 22:59N 47°40' W 122°23'0 0.2
2018-Dec-03 22:29N 47°40' W 122°24'0 0.0
2018-Dec-03 21:59N 47°40' W 122°24'0 0.0
2018-Dec-03 21:29N 47°40' W 122°24'0 0.0
2018-Dec-03 20:59N 47°40' W 122°24'0 0.0
2018-Dec-03 20:29N 47°40' W 122°24'0 0.0
2018-Dec-03 19:59N 47°40' W 122°24'0 0.0
2018-Dec-03 19:29N 47°40' W 122°24'0 0.0
2018-Dec-03 18:59N 47°40' W 122°24'0 0.0
2018-Dec-03 18:29N 47°40' W 122°24'0 0.0
2018-Dec-03 17:59N 47°40' W 122°24'0 0.0
2018-Dec-03 17:29N 47°40' W 122°24'0 0.0
2018-Dec-03 16:59N 47°40' W 122°24'0 0.0
2018-Dec-03 16:29N 47°40' W 122°24'0 0.0
2018-Dec-03 15:59N 47°40' W 122°24'0 0.0
2018-Dec-03 15:29N 47°40' W 122°24'0 0.0
2018-Dec-03 14:59N 47°40' W 122°24'0 0.0
2018-Dec-03 14:29N 47°40' W 122°24'0 0.0
2018-Dec-03 13:59N 47°40' W 122°24'0 0.0
2018-Dec-03 13:29N 47°40' W 122°24'0 0.0
2018-Dec-03 12:59N 47°40' W 122°24'0 0.0
2018-Dec-03 12:29N 47°40' W 122°24'0 0.0
2018-Dec-03 11:59N 47°40' W 122°24'0 0.0
2018-Dec-03 11:29N 47°40' W 122°24'0 0.0
2018-Dec-03 10:59N 47°40' W 122°24'0 0.0
2018-Dec-03 10:29N 47°40' W 122°24'0 0.0
2018-Dec-03 09:59N 47°40' W 122°24'0 0.0
2018-Dec-03 09:29N 47°40' W 122°24'0 0.0
2018-Dec-03 08:59N 47°40' W 122°24'0 0.0
2018-Dec-03 08:29N 47°40' W 122°24'0 0.0
2018-Dec-03 07:59N 47°40' W 122°24'0 0.0
2018-Dec-03 07:29N 47°40' W 122°24'0 0.0
2018-Dec-03 06:59N 47°40' W 122°24'0 0.0
2018-Dec-03 06:29N 47°40' W 122°24'0 0.0
2018-Dec-03 05:59N 47°40' W 122°24'0 0.0
2018-Dec-03 05:29N 47°40' W 122°24'0 0.0
2018-Dec-03 04:59N 47°40' W 122°24'0 0.0
2018-Dec-03 04:29N 47°40' W 122°24'0 0.0
2018-Dec-03 03:59N 47°40' W 122°24'0 0.0
2018-Dec-03 03:29N 47°40' W 122°24'0 0.0
2018-Dec-03 02:59N 47°40' W 122°24'0 0.0
2018-Dec-03 02:29N 47°40' W 122°24'0 0.0
2018-Dec-03 01:59N 47°40' W 122°24'1 1.3
2018-Dec-03 01:30N 47°40' W 122°23'1 1.1
2018-Dec-03 00:58N 47°39' W 122°22'0 0.0
2018-Dec-03 00:28N 47°39' W 122°22'0 0.0
2018-Dec-02 23:58N 47°39' W 122°22'  

Dump ship's entire track history